createdAt,value
2023-06-06T00:01:44.873Z,1.70
2023-06-06T00:04:13.566Z,1.90
2023-06-06T00:06:45.559Z,2.00
2023-06-06T00:09:14.818Z,1.90
2023-06-06T00:11:43.621Z,1.60
2023-06-06T00:14:13.633Z,2.10
2023-06-06T00:16:42.395Z,2.10
2023-06-06T00:19:11.457Z,1.80
2023-06-06T00:21:41.071Z,1.70
2023-06-06T00:24:09.950Z,1.80
2023-06-06T00:26:38.852Z,2.10
2023-06-06T00:29:07.650Z,2.10
2023-06-06T00:31:36.498Z,1.90
2023-06-06T00:34:05.298Z,2.00
2023-06-06T00:36:34.030Z,2.00
2023-06-06T00:39:02.975Z,2.00
2023-06-06T00:41:31.747Z,1.60
2023-06-06T00:44:00.553Z,2.00
2023-06-06T00:46:29.884Z,2.00
2023-06-06T00:48:59.887Z,1.80
2023-06-06T00:51:28.869Z,1.70
2023-06-06T00:53:59.317Z,2.20
2023-06-06T00:56:31.230Z,1.60
2023-06-06T00:59:00.399Z,2.00
2023-06-06T01:01:34.865Z,1.70
2023-06-06T01:04:10.121Z,1.60
2023-06-06T01:06:38.908Z,1.80
2023-06-06T01:09:10.857Z,1.80
2023-06-06T01:11:48.797Z,2.20
2023-06-06T01:14:32.580Z,2.00
2023-06-06T01:17:09.360Z,1.80
2023-06-06T01:19:42.515Z,2.00
2023-06-06T01:22:14.362Z,2.10
2023-06-06T01:24:46.556Z,2.00
2023-06-06T01:27:15.295Z,2.10
2023-06-06T01:29:44.524Z,2.00
2023-06-06T01:32:26.593Z,1.60
2023-06-06T01:35:22.063Z,1.80
2023-06-06T01:38:10.817Z,2.30
2023-06-06T01:40:41.957Z,1.80
2023-06-06T01:43:12.343Z,1.90
2023-06-06T01:45:41.931Z,1.90
2023-06-06T01:48:11.082Z,1.90
2023-06-06T01:50:40.443Z,2.00
2023-06-06T01:53:09.206Z,1.80
2023-06-06T01:55:38.202Z,1.90
2023-06-06T01:58:07.286Z,1.90
2023-06-06T02:00:36.640Z,1.80
2023-06-06T02:03:05.569Z,1.90
2023-06-06T02:05:34.544Z,2.00
2023-06-06T02:08:03.447Z,2.00
2023-06-06T02:10:33.734Z,2.00
2023-06-06T02:13:02.537Z,2.00
2023-06-06T02:15:31.461Z,2.10
2023-06-06T02:18:02.347Z,1.90
2023-06-06T02:20:31.525Z,2.10
2023-06-06T02:23:00.376Z,2.20
2023-06-06T02:25:29.182Z,2.20
2023-06-06T02:27:57.985Z,1.80
2023-06-06T02:30:26.998Z,2.10
2023-06-06T02:32:57.647Z,1.90
2023-06-06T02:35:26.508Z,2.20
2023-06-06T02:37:55.269Z,2.20
2023-06-06T02:40:24.439Z,2.70
2023-06-06T02:42:53.308Z,2.30
2023-06-06T02:45:23.221Z,2.80
2023-06-06T02:47:52.905Z,2.90
2023-06-06T02:50:22.097Z,2.90
2023-06-06T02:52:52.835Z,3.40
2023-06-06T02:55:21.694Z,2.70
2023-06-06T02:57:51.710Z,4.10
2023-06-06T03:00:20.559Z,2.50
2023-06-06T03:02:49.488Z,2.30
2023-06-06T03:05:18.534Z,2.40
2023-06-06T03:07:48.669Z,2.40
2023-06-06T03:10:17.433Z,2.70
2023-06-06T03:12:49.247Z,2.90
2023-06-06T03:15:18.311Z,3.10
2023-06-06T03:17:49.770Z,2.70
2023-06-06T03:20:21.954Z,2.70
2023-06-06T03:22:58.474Z,3.00
2023-06-06T03:25:27.565Z,2.50
2023-06-06T03:27:56.470Z,3.20
2023-06-06T03:30:25.207Z,3.30
2023-06-06T03:32:54.131Z,2.40
2023-06-06T03:35:23.971Z,3.10
2023-06-06T03:37:56.893Z,2.90
2023-06-06T03:40:26.218Z,2.60
2023-06-06T03:42:55.183Z,2.50
2023-06-06T03:45:25.767Z,2.60
2023-06-06T03:47:55.972Z,2.50
2023-06-06T03:50:25.083Z,3.40
2023-06-06T03:52:55.168Z,2.60
2023-06-06T03:55:25.028Z,2.80
2023-06-06T03:57:56.952Z,2.90
2023-06-06T04:00:26.903Z,3.00
2023-06-06T04:02:55.919Z,2.90
2023-06-06T04:05:25.107Z,3.70
2023-06-06T04:07:53.938Z,4.10
2023-06-06T04:10:23.220Z,4.20
2023-06-06T04:12:54.137Z,3.60
2023-06-06T04:15:22.942Z,3.10
2023-06-06T04:17:51.680Z,3.40
2023-06-06T04:20:20.612Z,5.20
2023-06-06T04:22:49.477Z,3.10
2023-06-06T04:25:19.881Z,3.80
2023-06-06T04:27:49.701Z,3.10
2023-06-06T04:30:23.827Z,2.80
2023-06-06T04:32:56.807Z,2.60
2023-06-06T04:35:26.543Z,3.10
2023-06-06T04:37:58.469Z,3.00
2023-06-06T04:40:46.809Z,2.70
2023-06-06T04:43:25.169Z,2.70
2023-06-06T04:45:55.247Z,3.40
2023-06-06T04:48:26.872Z,2.80
2023-06-06T04:50:56.846Z,2.90
2023-06-06T04:53:26.812Z,3.50
2023-06-06T04:55:57.440Z,2.90
2023-06-06T04:58:30.007Z,2.90
2023-06-06T05:00:59.192Z,2.80
2023-06-06T05:03:29.384Z,3.00
2023-06-06T05:05:59.528Z,3.10
2023-06-06T05:08:32.931Z,3.30
2023-06-06T05:11:01.713Z,3.10
2023-06-06T05:13:30.501Z,2.70
2023-06-06T05:15:59.321Z,3.30
2023-06-06T05:18:29.747Z,3.20
2023-06-06T05:21:03.288Z,3.00
2023-06-06T05:23:33.381Z,3.10
2023-06-06T05:26:02.268Z,3.40
2023-06-06T05:28:31.154Z,2.90
2023-06-06T05:31:00.028Z,3.00
2023-06-06T05:33:28.936Z,2.90
2023-06-06T05:35:58.144Z,2.90
2023-06-06T05:38:27.600Z,2.90
2023-06-06T05:40:56.361Z,3.20
2023-06-06T05:43:26.347Z,3.10
2023-06-06T05:45:55.126Z,3.30
2023-06-06T05:48:24.104Z,3.40
2023-06-06T05:50:52.990Z,3.30
2023-06-06T05:53:23.388Z,3.10
2023-06-06T05:55:52.245Z,3.20
2023-06-06T05:58:21.599Z,3.10
2023-06-06T06:00:50.748Z,3.30
2023-06-06T06:03:19.961Z,3.00
2023-06-06T06:05:49.066Z,3.50
2023-06-06T06:08:19.064Z,3.40
2023-06-06T06:10:48.061Z,2.90
2023-06-06T06:13:16.943Z,2.80
2023-06-06T06:15:46.154Z,2.50
2023-06-06T06:18:16.050Z,3.00
2023-06-06T06:20:45.023Z,3.20
2023-06-06T06:23:13.987Z,3.00
2023-06-06T06:25:43.379Z,3.10
2023-06-06T06:28:22.296Z,3.50
2023-06-06T06:30:51.251Z,2.80
2023-06-06T06:33:23.934Z,2.90
2023-06-06T06:35:52.768Z,2.90
2023-06-06T06:38:22.021Z,3.10
2023-06-06T06:40:50.804Z,3.20
2023-06-06T06:43:19.576Z,3.20
2023-06-06T06:45:54.537Z,3.30
2023-06-06T06:48:23.514Z,2.90
2023-06-06T06:50:53.696Z,3.20
2023-06-06T06:53:26.776Z,3.70
2023-06-06T06:55:55.600Z,3.00
2023-06-06T06:58:27.067Z,2.60
2023-06-06T07:00:56.066Z,2.60
2023-06-06T07:03:25.385Z,3.00
2023-06-06T07:05:54.643Z,2.70
2023-06-06T07:08:23.527Z,3.10
2023-06-06T07:10:52.420Z,2.50
2023-06-06T07:13:21.254Z,2.70
2023-06-06T07:15:50.204Z,2.90
2023-06-06T07:18:19.249Z,2.90
2023-06-06T07:20:48.415Z,3.10
2023-06-06T07:23:17.790Z,2.80
2023-06-06T07:25:46.855Z,3.00
2023-06-06T07:28:16.647Z,3.00
2023-06-06T07:30:46.118Z,3.00
2023-06-06T07:33:15.296Z,2.70
2023-06-06T07:35:45.336Z,3.00
2023-06-06T07:38:14.968Z,2.70
2023-06-06T07:40:43.799Z,3.00
2023-06-06T07:43:13.028Z,2.40
2023-06-06T07:45:41.833Z,2.50
2023-06-06T07:48:10.942Z,2.50
2023-06-06T07:50:39.935Z,2.80
2023-06-06T07:53:08.944Z,3.50
2023-06-06T07:55:38.532Z,3.00
2023-06-06T07:58:13.090Z,2.70
2023-06-06T08:00:42.208Z,2.80
2023-06-06T08:03:13.251Z,2.90
2023-06-06T08:05:42.518Z,2.60
2023-06-06T08:08:12.618Z,2.50
2023-06-06T08:10:41.835Z,2.80
2023-06-06T08:13:10.824Z,2.80
2023-06-06T08:15:39.853Z,1.70
2023-06-06T08:18:08.592Z,2.30
2023-06-06T08:20:37.470Z,2.50
2023-06-06T08:23:06.319Z,3.50
2023-06-06T08:25:40.364Z,2.30
2023-06-06T08:28:09.325Z,2.50
2023-06-06T08:30:38.357Z,2.70
2023-06-06T08:33:07.291Z,3.00
2023-06-06T08:35:36.217Z,2.50
2023-06-06T08:38:05.022Z,2.20
2023-06-06T08:40:33.925Z,2.20
2023-06-06T08:43:03.562Z,2.00
2023-06-06T08:45:33.304Z,2.40
2023-06-06T08:48:08.803Z,2.20
2023-06-06T08:50:39.964Z,3.10
2023-06-06T08:53:08.794Z,2.20
2023-06-06T08:55:38.780Z,2.80
2023-06-06T08:58:08.248Z,2.10
2023-06-06T09:00:37.044Z,2.50
2023-06-06T09:03:08.438Z,2.10
2023-06-06T09:05:39.472Z,2.60
2023-06-06T09:08:11.567Z,2.40
2023-06-06T09:10:40.457Z,2.40
2023-06-06T09:13:09.706Z,2.20
2023-06-06T09:15:38.660Z,1.90
2023-06-06T09:18:07.733Z,2.10
2023-06-06T09:20:36.653Z,2.20
2023-06-06T09:23:11.576Z,2.30
2023-06-06T09:25:49.033Z,2.40
2023-06-06T09:28:19.727Z,2.10
2023-06-06T09:30:48.598Z,2.40
2023-06-06T09:33:17.580Z,2.20
2023-06-06T09:35:46.683Z,2.50
2023-06-06T09:38:20.301Z,2.30
2023-06-06T09:40:51.933Z,2.50
2023-06-06T09:43:27.685Z,2.30
2023-06-06T09:45:57.224Z,2.60
2023-06-06T09:48:28.830Z,2.20
2023-06-06T09:51:02.026Z,2.00
2023-06-06T09:53:33.091Z,2.30
2023-06-06T09:56:05.401Z,2.20
2023-06-06T09:58:36.472Z,2.50
2023-06-06T10:01:07.750Z,2.50
2023-06-06T10:03:38.952Z,2.70
2023-06-06T10:06:10.790Z,2.60
2023-06-06T10:08:41.365Z,3.00
2023-06-06T10:11:10.477Z,2.20
2023-06-06T10:13:39.676Z,2.30
2023-06-06T10:16:10.779Z,2.40
2023-06-06T10:18:42.564Z,2.20
2023-06-06T10:21:12.903Z,3.40
2023-06-06T10:23:41.967Z,2.50
2023-06-06T10:26:22.269Z,2.80
2023-06-06T10:29:16.288Z,3.00
2023-06-06T10:32:07.020Z,3.00
2023-06-06T10:34:41.899Z,2.50
2023-06-06T10:37:23.349Z,2.30
2023-06-06T10:40:09.119Z,2.20
2023-06-06T10:42:42.794Z,2.90
2023-06-06T10:45:11.886Z,2.60
2023-06-06T10:47:44.601Z,2.40
2023-06-06T10:50:14.899Z,2.60
2023-06-06T10:52:52.817Z,2.50
2023-06-06T10:55:21.863Z,2.40
2023-06-06T10:57:56.187Z,2.40
2023-06-06T11:00:27.007Z,2.60
2023-06-06T11:03:02.085Z,2.20
2023-06-06T11:05:31.387Z,2.70
2023-06-06T11:08:04.150Z,2.60
2023-06-06T11:10:49.551Z,2.60
2023-06-06T11:13:30.534Z,2.20
2023-06-06T11:15:59.461Z,2.20
2023-06-06T11:18:41.657Z,2.20
2023-06-06T11:21:10.733Z,2.20
2023-06-06T11:23:44.004Z,2.30
2023-06-06T11:26:13.109Z,2.60
2023-06-06T11:28:42.789Z,2.50
2023-06-06T11:31:12.706Z,2.40
2023-06-06T11:33:41.817Z,2.40
2023-06-06T11:36:11.087Z,2.40
2023-06-06T11:38:43.425Z,2.50
2023-06-06T11:43:51.795Z,2.40
2023-06-06T11:46:20.701Z,2.60
2023-06-06T11:49:01.676Z,2.00
2023-06-06T11:51:30.807Z,2.50
2023-06-06T11:54:11.686Z,3.10
2023-06-06T11:56:41.752Z,2.80
2023-06-06T11:59:13.380Z,2.80
2023-06-06T12:01:54.572Z,2.60
2023-06-06T12:04:25.219Z,2.30
2023-06-06T12:07:04.625Z,2.20
2023-06-06T12:09:34.130Z,2.70
2023-06-06T12:12:05.798Z,2.50
2023-06-06T12:14:35.521Z,2.10
2023-06-06T12:17:11.998Z,2.30
2023-06-06T12:19:40.828Z,2.40
2023-06-06T12:22:11.189Z,2.10
2023-06-06T12:24:42.432Z,2.30
2023-06-06T12:27:13.559Z,2.30
2023-06-06T12:29:52.263Z,2.10
2023-06-06T12:32:30.940Z,2.10
2023-06-06T12:35:04.619Z,2.90
2023-06-06T12:37:37.590Z,2.40
2023-06-06T12:40:21.492Z,3.00
2023-06-06T12:42:57.510Z,2.90
2023-06-06T12:45:28.251Z,2.30
2023-06-06T12:48:00.686Z,2.30
2023-06-06T12:50:30.599Z,2.30
2023-06-06T12:52:59.608Z,2.30
2023-06-06T12:55:28.565Z,2.70
2023-06-06T12:57:57.422Z,2.50
2023-06-06T13:00:26.429Z,2.50
2023-06-06T13:02:55.337Z,2.30
2023-06-06T13:05:24.291Z,2.20
2023-06-06T13:07:53.349Z,2.40
2023-06-06T13:10:22.406Z,2.30
2023-06-06T13:12:51.108Z,2.50
2023-06-06T13:15:19.888Z,2.30
2023-06-06T13:17:48.751Z,2.60
2023-06-06T13:20:18.098Z,2.30
2023-06-06T13:22:48.553Z,2.70
2023-06-06T13:25:17.434Z,2.40
2023-06-06T13:27:46.444Z,2.70
2023-06-06T13:30:15.672Z,3.10
2023-06-06T13:32:44.707Z,2.70
2023-06-06T13:35:13.953Z,2.10
2023-06-06T13:37:42.883Z,2.80
2023-06-06T13:40:12.242Z,2.40
2023-06-06T13:42:41.278Z,2.20
2023-06-06T13:45:10.809Z,2.20
2023-06-06T13:47:39.671Z,2.40
2023-06-06T13:50:10.358Z,2.20
2023-06-06T13:52:40.890Z,2.70
2023-06-06T13:55:09.988Z,2.70
2023-06-06T13:57:43.050Z,2.30
2023-06-06T14:00:14.078Z,2.60
2023-06-06T14:02:43.151Z,2.80
2023-06-06T14:05:12.785Z,2.70
2023-06-06T14:07:41.624Z,2.60
2023-06-06T14:10:11.672Z,2.50
2023-06-06T14:12:41.881Z,2.40
2023-06-06T14:15:11.534Z,2.30
2023-06-06T14:17:40.442Z,2.80
2023-06-06T14:20:13.355Z,2.40
2023-06-06T14:22:42.915Z,3.00
2023-06-06T14:25:11.821Z,2.40
2023-06-06T14:27:40.889Z,2.50
2023-06-06T14:30:10.343Z,2.60
2023-06-06T14:32:39.982Z,2.30
2023-06-06T14:35:11.969Z,2.40
2023-06-06T14:40:12.091Z,2.90
2023-06-06T14:42:40.987Z,2.30
2023-06-06T14:45:10.922Z,2.10
2023-06-06T14:47:40.296Z,3.00
2023-06-06T14:50:09.881Z,2.80
2023-06-06T14:52:38.696Z,2.10
2023-06-06T14:55:08.036Z,2.40
2023-06-06T14:57:39.018Z,2.40
2023-06-06T15:00:09.943Z,2.40
2023-06-06T15:02:38.910Z,2.30
2023-06-06T15:05:08.277Z,2.30
2023-06-06T15:07:37.106Z,2.80
2023-06-06T15:10:07.217Z,2.40
2023-06-06T15:12:35.957Z,2.50
2023-06-06T15:15:05.637Z,2.50
2023-06-06T15:17:34.575Z,2.40
2023-06-06T15:20:03.809Z,2.60
2023-06-06T15:22:32.507Z,2.60
2023-06-06T15:25:01.451Z,2.60
2023-06-06T15:27:33.010Z,2.30
2023-06-06T15:30:01.963Z,2.20
2023-06-06T15:32:30.864Z,2.30
2023-06-06T15:35:00.244Z,2.40
2023-06-06T15:37:29.109Z,2.50
2023-06-06T15:39:57.981Z,3.90
2023-06-06T15:42:26.911Z,2.70
2023-06-06T15:44:57.967Z,2.30
2023-06-06T15:47:27.322Z,2.20
2023-06-06T15:49:56.198Z,2.60
2023-06-06T15:52:25.055Z,2.10
2023-06-06T15:54:54.129Z,6.10
2023-06-06T15:57:26.440Z,2.80
2023-06-06T15:59:55.225Z,2.60
2023-06-06T16:02:27.099Z,2.10
2023-06-06T16:04:56.086Z,2.20
2023-06-06T16:07:25.067Z,2.80
2023-06-06T16:09:53.846Z,2.20
2023-06-06T16:12:23.490Z,2.60
2023-06-06T16:14:52.350Z,2.30
2023-06-06T16:17:22.176Z,2.30
2023-06-06T16:19:52.341Z,2.50
2023-06-06T16:22:24.295Z,2.40
2023-06-06T16:24:55.211Z,2.10
2023-06-06T16:27:24.361Z,2.60
2023-06-06T16:29:53.472Z,2.50
2023-06-06T16:32:22.320Z,2.50
2023-06-06T16:34:51.192Z,2.70
2023-06-06T16:37:19.954Z,2.70
2023-06-06T16:39:48.644Z,2.70
2023-06-06T16:42:17.430Z,2.80
2023-06-06T16:44:46.252Z,2.90
2023-06-06T16:47:15.306Z,3.40
2023-06-06T16:49:44.109Z,2.80
2023-06-06T16:52:15.816Z,2.50
2023-06-06T16:54:44.653Z,3.20
2023-06-06T16:57:13.359Z,2.70
2023-06-06T16:59:42.132Z,2.70
2023-06-06T17:02:13.257Z,2.70
2023-06-06T17:04:42.538Z,2.80
2023-06-06T17:07:11.370Z,2.50
2023-06-06T17:09:40.170Z,2.60
2023-06-06T17:12:09.883Z,2.70
2023-06-06T17:14:38.666Z,2.60
2023-06-06T17:17:07.583Z,2.70
2023-06-06T17:19:36.378Z,2.80
2023-06-06T17:22:06.179Z,2.40
2023-06-06T17:24:35.420Z,2.10
2023-06-06T17:27:04.956Z,2.50
2023-06-06T17:29:33.856Z,2.40
2023-06-06T17:32:02.908Z,2.40
2023-06-06T17:34:31.688Z,2.30
2023-06-06T17:37:01.221Z,2.70
2023-06-06T17:39:30.468Z,2.10
2023-06-06T17:41:59.275Z,2.20
2023-06-06T17:44:28.420Z,2.70
2023-06-06T17:46:57.336Z,2.10
2023-06-06T17:49:27.095Z,2.10
2023-06-06T17:51:56.000Z,2.00
2023-06-06T17:54:25.075Z,2.50
2023-06-06T17:56:55.498Z,2.40
2023-06-06T17:59:24.476Z,2.30
2023-06-06T18:01:53.291Z,2.40
2023-06-06T18:04:22.091Z,2.30
2023-06-06T18:06:50.974Z,2.30
2023-06-06T18:09:19.920Z,2.40
2023-06-06T18:11:48.956Z,2.40
2023-06-06T18:14:18.110Z,2.00
2023-06-06T18:16:46.954Z,2.80
2023-06-06T18:19:15.944Z,1.90
2023-06-06T18:21:45.958Z,2.20
2023-06-06T18:24:14.942Z,2.10
2023-06-06T18:26:43.753Z,2.20
2023-06-06T18:29:13.041Z,2.00
2023-06-06T18:31:42.047Z,1.90
2023-06-06T18:34:12.561Z,2.20
2023-06-06T18:36:41.389Z,2.20
2023-06-06T18:39:10.916Z,2.20
2023-06-06T18:41:40.115Z,2.00
2023-06-06T18:44:09.230Z,1.70
2023-06-06T18:46:41.188Z,1.50
2023-06-06T18:49:10.922Z,2.20
2023-06-06T18:51:41.969Z,2.20
2023-06-06T18:54:14.345Z,2.20
2023-06-06T18:59:13.395Z,1.80
2023-06-06T19:01:42.323Z,2.20
2023-06-06T19:04:11.972Z,2.10
2023-06-06T19:06:44.071Z,2.20
2023-06-06T19:09:14.256Z,2.30
2023-06-06T19:11:43.635Z,2.20
2023-06-06T19:14:13.105Z,1.90
2023-06-06T19:16:42.355Z,1.90
2023-06-06T19:19:12.117Z,1.70
2023-06-06T19:21:41.099Z,2.00
2023-06-06T19:24:10.098Z,1.90
2023-06-06T19:26:38.945Z,1.70
2023-06-06T19:29:07.866Z,1.80
2023-06-06T19:31:38.582Z,2.20
2023-06-06T19:34:07.592Z,2.00
2023-06-06T19:36:36.410Z,2.40
2023-06-06T19:39:05.260Z,1.90
2023-06-06T19:41:34.184Z,1.60
2023-06-06T19:44:03.051Z,1.80
2023-06-06T19:46:31.987Z,1.90
2023-06-06T19:49:01.185Z,2.00
2023-06-06T19:51:30.064Z,2.50
2023-06-06T19:53:59.544Z,2.50
2023-06-06T19:56:29.228Z,2.30
2023-06-06T19:58:59.266Z,2.00
2023-06-06T20:01:28.784Z,1.70
2023-06-06T20:03:58.208Z,1.60
2023-06-06T20:06:28.270Z,1.80
2023-06-06T20:08:58.595Z,2.00
2023-06-06T20:12:08.535Z,1.90
2023-06-06T20:14:38.207Z,1.80
2023-06-06T20:17:10.928Z,1.50
2023-06-06T20:22:11.956Z,2.00
2023-06-06T20:24:41.492Z,1.70
2023-06-06T20:27:16.539Z,1.90
2023-06-06T20:29:45.515Z,2.30
2023-06-06T20:32:14.720Z,2.00
2023-06-06T20:34:44.624Z,1.80
2023-06-06T20:37:13.601Z,1.70
2023-06-06T20:39:53.729Z,1.90
2023-06-06T20:42:23.752Z,3.20
2023-06-06T20:44:52.763Z,2.00
2023-06-06T20:47:21.870Z,1.90
2023-06-06T20:49:50.680Z,1.80
2023-06-06T20:52:20.973Z,1.70
2023-06-06T20:54:49.770Z,1.80
2023-06-06T20:57:18.641Z,1.90
2023-06-06T20:59:47.482Z,2.20
2023-06-06T21:02:17.421Z,1.90
2023-06-06T21:04:46.925Z,2.10
2023-06-06T21:07:15.771Z,1.80
2023-06-06T21:09:44.575Z,3.30
2023-06-06T21:12:13.381Z,2.00
2023-06-06T21:14:42.116Z,1.80
2023-06-06T21:17:10.981Z,2.00
2023-06-06T21:19:39.743Z,2.20
2023-06-06T21:22:08.660Z,1.60
2023-06-06T21:24:37.612Z,1.80
2023-06-06T21:27:08.277Z,2.30
2023-06-06T21:29:37.373Z,1.80
2023-06-06T21:32:06.851Z,1.90
2023-06-06T21:34:35.730Z,1.80
2023-06-06T21:37:04.844Z,2.10
2023-06-06T21:39:33.692Z,2.00
2023-06-06T21:42:05.384Z,2.60
2023-06-06T21:44:34.300Z,1.80
2023-06-06T21:47:03.253Z,1.60
2023-06-06T21:49:32.120Z,1.90
2023-06-06T21:52:00.896Z,1.70
2023-06-06T21:54:29.894Z,1.90
2023-06-06T21:56:58.735Z,1.80
2023-06-06T21:59:27.581Z,1.90
2023-06-06T22:01:56.386Z,1.70
2023-06-06T22:04:25.320Z,2.10
2023-06-06T22:06:54.755Z,1.50
2023-06-06T22:09:23.548Z,1.90
2023-06-06T22:11:52.322Z,1.80
2023-06-06T22:14:21.425Z,2.10
2023-06-06T22:16:50.278Z,1.60
2023-06-06T22:19:19.128Z,1.90
2023-06-06T22:21:48.347Z,1.90
2023-06-06T22:24:17.370Z,2.10
2023-06-06T22:26:46.411Z,1.60
2023-06-06T22:29:15.139Z,2.00
2023-06-06T22:31:44.106Z,1.90
2023-06-06T22:34:12.883Z,2.10
2023-06-06T22:36:42.481Z,2.10
2023-06-06T22:39:11.591Z,2.00
2023-06-06T22:41:40.590Z,2.20
2023-06-06T22:44:09.437Z,2.10
2023-06-06T22:46:38.183Z,2.40
2023-06-06T22:49:07.018Z,2.40
2023-06-06T22:51:36.049Z,3.00
2023-06-06T22:54:04.965Z,2.80
2023-06-06T22:56:33.683Z,2.70
2023-06-06T22:59:02.469Z,2.40
2023-06-06T23:01:32.031Z,2.20
2023-06-06T23:04:01.446Z,2.70
2023-06-06T23:06:32.144Z,2.50
2023-06-06T23:09:00.910Z,2.40
2023-06-06T23:11:29.825Z,2.50
2023-06-06T23:13:58.797Z,2.80
2023-06-06T23:16:27.660Z,2.60
2023-06-06T23:18:56.477Z,2.70
2023-06-06T23:21:29.062Z,3.20
2023-06-06T23:23:57.964Z,3.00
2023-06-06T23:26:26.922Z,3.40
2023-06-06T23:28:55.791Z,3.50
2023-06-06T23:31:26.969Z,3.20
2023-06-06T23:33:55.905Z,3.50
2023-06-06T23:36:24.898Z,3.60
2023-06-06T23:38:53.681Z,3.40
2023-06-06T23:41:22.755Z,3.60
2023-06-06T23:43:51.571Z,3.70
2023-06-06T23:46:20.356Z,4.10
2023-06-06T23:48:49.392Z,4.50
2023-06-06T23:51:18.304Z,5.10
2023-06-06T23:53:47.282Z,5.60
2023-06-06T23:56:16.107Z,4.90
2023-06-06T23:58:44.944Z,5.00
